createdAt,value
2022-11-10T00:00:18.288Z,94104.56
2022-11-10T00:02:44.722Z,94101.16
2022-11-10T00:05:11.347Z,94088.91
2022-11-10T00:07:37.794Z,94090.75
2022-11-10T00:10:05.475Z,94080.28
2022-11-10T00:12:34.424Z,94080.09
2022-11-10T00:15:19.486Z,94077.41
2022-11-10T00:17:45.932Z,94062.94
2022-11-10T00:20:12.810Z,94062.81
2022-11-10T00:22:39.870Z,94063.28
2022-11-10T00:25:06.737Z,94043.38
2022-11-10T00:27:33.593Z,94054.63
2022-11-10T00:30:00.446Z,94041.00
2022-11-10T00:32:26.944Z,94047.06
2022-11-10T00:34:55.250Z,94044.59
2022-11-10T00:37:23.482Z,94043.81
2022-11-10T00:39:50.645Z,94046.41
2022-11-10T00:42:18.965Z,94041.44
2022-11-10T00:44:45.734Z,94046.19
2022-11-10T00:47:12.783Z,94041.66
2022-11-10T00:49:39.199Z,94032.22
2022-11-10T00:52:06.330Z,94044.69
2022-11-10T00:54:32.784Z,94041.88
2022-11-10T00:56:59.266Z,94046.50
2022-11-10T00:59:28.905Z,94051.41
2022-11-10T01:01:55.397Z,94043.16
2022-11-10T01:04:21.830Z,94053.69
2022-11-10T01:06:48.571Z,94056.38
2022-11-10T01:09:17.326Z,94050.97
2022-11-10T01:11:43.795Z,94061.13
2022-11-10T01:14:10.403Z,94050.19
2022-11-10T01:16:36.818Z,94054.88
2022-11-10T01:19:03.335Z,94058.31
2022-11-10T01:21:30.263Z,94067.00
2022-11-10T01:23:57.456Z,94069.38
2022-11-10T01:26:24.270Z,94062.34
2022-11-10T01:28:50.657Z,94079.56
2022-11-10T01:31:18.442Z,94069.81
2022-11-10T01:33:45.161Z,94081.50
2022-11-10T01:36:12.529Z,94090.19
2022-11-10T01:38:40.889Z,94075.03
2022-11-10T01:41:08.962Z,94088.25
2022-11-10T01:43:36.183Z,94089.97
2022-11-10T01:46:02.658Z,94086.72
2022-11-10T01:48:31.823Z,94106.97
2022-11-10T01:51:04.282Z,94108.81
2022-11-10T01:53:34.434Z,94105.78
2022-11-10T01:56:02.547Z,94127.19
2022-11-10T01:58:35.083Z,94124.13
2022-11-10T02:01:01.608Z,94141.81
2022-11-10T02:03:28.153Z,94150.38
2022-11-10T02:05:55.202Z,94121.28
2022-11-10T02:08:22.384Z,94144.97
2022-11-10T02:10:48.930Z,94138.50
2022-11-10T02:13:17.169Z,94138.19
2022-11-10T02:15:43.644Z,94140.66
2022-11-10T02:18:10.052Z,94142.94
2022-11-10T02:20:36.471Z,94155.16
2022-11-10T02:23:13.069Z,94150.63
2022-11-10T02:25:39.510Z,94163.50
2022-11-10T02:28:08.625Z,94164.59
2022-11-10T02:30:35.082Z,94158.75
2022-11-10T02:33:05.630Z,94176.63
2022-11-10T02:35:34.278Z,94195.91
2022-11-10T02:38:01.339Z,94184.78
2022-11-10T02:40:30.003Z,94208.44
2022-11-10T02:42:56.473Z,94202.22
2022-11-10T02:45:24.879Z,94211.41
2022-11-10T02:47:52.020Z,94214.53
2022-11-10T02:50:18.439Z,94203.28
2022-11-10T02:52:44.857Z,94231.19
2022-11-10T02:55:11.324Z,94238.56
2022-11-10T02:57:38.244Z,94227.03
2022-11-10T03:00:05.693Z,94259.25
2022-11-10T03:02:32.532Z,94262.53
2022-11-10T03:04:58.965Z,94272.03
2022-11-10T03:07:25.434Z,94293.63
2022-11-10T03:09:51.834Z,94294.44
2022-11-10T03:12:18.595Z,94318.38
2022-11-10T03:14:45.063Z,94325.81
2022-11-10T03:17:11.502Z,94335.78
2022-11-10T03:19:37.964Z,94349.50
2022-11-10T03:22:04.442Z,94330.88
2022-11-10T03:24:30.853Z,94336.56
2022-11-10T03:26:57.352Z,94329.56
2022-11-10T03:29:23.746Z,94327.84
2022-11-10T03:31:50.207Z,94335.13
2022-11-10T03:34:16.611Z,94326.34
2022-11-10T03:36:43.066Z,94325.66
2022-11-10T03:39:11.189Z,94323.56
2022-11-10T03:41:37.590Z,94324.38
2022-11-10T03:44:04.041Z,94337.50
2022-11-10T03:46:30.439Z,94329.72
2022-11-10T03:48:56.863Z,94320.94
2022-11-10T03:51:23.400Z,94317.63
2022-11-10T03:53:49.944Z,94301.13
2022-11-10T03:56:16.590Z,94288.06
2022-11-10T03:58:45.766Z,94298.53
2022-11-10T04:01:12.214Z,94277.25
2022-11-10T04:03:38.698Z,94290.28
2022-11-10T04:06:23.766Z,94287.59
2022-11-10T04:09:02.205Z,94281.16
2022-11-10T04:11:50.407Z,94290.81
2022-11-10T04:14:35.258Z,94285.72
2022-11-10T04:17:04.647Z,94297.00
2022-11-10T04:19:31.175Z,94320.75
2022-11-10T04:21:57.887Z,94304.16
2022-11-10T04:24:24.319Z,94322.63
2022-11-10T04:26:50.744Z,94314.47
2022-11-10T04:29:20.315Z,94317.69
2022-11-10T04:31:46.934Z,94332.75
2022-11-10T04:34:16.660Z,94328.50
2022-11-10T04:36:43.435Z,94345.97
2022-11-10T04:39:11.045Z,94347.47
2022-11-10T04:41:37.737Z,94334.78
2022-11-10T04:44:04.558Z,94339.69
2022-11-10T04:46:32.849Z,94338.91
2022-11-10T04:48:59.582Z,94354.91
2022-11-10T04:51:27.513Z,94359.66
2022-11-10T04:53:54.041Z,94350.00
2022-11-10T04:56:21.939Z,94372.84
2022-11-10T04:58:48.778Z,94368.59
2022-11-10T05:01:21.778Z,94373.34
2022-11-10T05:03:49.382Z,94387.56
2022-11-10T05:06:18.190Z,94372.50
2022-11-10T05:08:47.082Z,94379.94
2022-11-10T05:11:13.858Z,94397.44
2022-11-10T05:13:40.497Z,94396.34
2022-11-10T05:16:07.373Z,94422.91
2022-11-10T05:18:34.033Z,94429.19
2022-11-10T05:21:00.439Z,94444.22
2022-11-10T05:23:39.126Z,94473.13
2022-11-10T05:26:05.655Z,94473.13
2022-11-10T05:28:32.055Z,94485.50
2022-11-10T05:30:58.463Z,94495.97
2022-11-10T05:33:26.828Z,94513.25
2022-11-10T05:35:53.314Z,94545.34
2022-11-10T05:38:19.934Z,94542.84
2022-11-10T05:40:47.235Z,94552.22
2022-11-10T05:43:13.668Z,94574.00
2022-11-10T05:45:40.168Z,94563.63
2022-11-10T05:48:06.698Z,94598.16
2022-11-10T05:50:33.173Z,94601.22
2022-11-10T05:52:59.636Z,94596.53
2022-11-10T05:55:27.435Z,94602.25
2022-11-10T05:57:54.667Z,94594.28
2022-11-10T06:00:22.581Z,94607.94
2022-11-10T06:02:57.927Z,94619.50
2022-11-10T06:05:30.641Z,94615.56
2022-11-10T06:07:57.819Z,94611.34
2022-11-10T06:10:24.300Z,94615.69
2022-11-10T06:12:51.087Z,94599.19
2022-11-10T06:15:17.709Z,94601.69
2022-11-10T06:17:44.179Z,94608.81
2022-11-10T06:20:11.110Z,94596.28
2022-11-10T06:22:37.557Z,94596.28
2022-11-10T06:25:04.371Z,94599.47
2022-11-10T06:27:30.930Z,94581.38
2022-11-10T06:29:57.339Z,94596.34
2022-11-10T06:32:23.935Z,94586.16
2022-11-10T06:34:50.431Z,94586.09
2022-11-10T06:37:16.947Z,94596.41
2022-11-10T06:39:43.826Z,94583.78
2022-11-10T06:42:10.226Z,94594.34
2022-11-10T06:44:36.660Z,94590.19
2022-11-10T06:47:03.090Z,94581.44
2022-11-10T06:49:29.511Z,94597.25
2022-11-10T06:51:55.926Z,94588.53
2022-11-10T06:54:22.315Z,94582.28
2022-11-10T06:56:48.777Z,94590.06
2022-11-10T06:59:15.179Z,94578.13
2022-11-10T07:01:41.660Z,94590.72
2022-11-10T07:04:23.564Z,94592.94
2022-11-10T07:06:50.102Z,94591.38
2022-11-10T07:09:17.039Z,94612.81
2022-11-10T07:11:43.490Z,94597.06
2022-11-10T07:14:09.987Z,94609.53
2022-11-10T07:16:36.642Z,94614.59
2022-11-10T07:19:03.079Z,94604.66
2022-11-10T07:21:29.727Z,94620.00
2022-11-10T07:23:56.170Z,94615.16
2022-11-10T07:26:22.618Z,94611.69
2022-11-10T07:28:49.034Z,94625.00
2022-11-10T07:31:15.480Z,94620.41
2022-11-10T07:33:43.727Z,94631.88
2022-11-10T07:36:10.131Z,94627.56
2022-11-10T07:38:36.722Z,94613.06
2022-11-10T07:41:03.209Z,94635.41
2022-11-10T07:43:29.640Z,94617.72
2022-11-10T07:45:56.140Z,94612.03
2022-11-10T07:48:22.550Z,94627.28
2022-11-10T07:50:50.495Z,94620.47
2022-11-10T07:53:19.995Z,94642.47
2022-11-10T07:55:46.880Z,94637.13
2022-11-10T07:58:14.189Z,94647.94
2022-11-10T08:00:41.120Z,94661.63
2022-11-10T08:03:10.250Z,94656.66
2022-11-10T08:05:37.314Z,94676.06
2022-11-10T08:08:04.373Z,94681.34
2022-11-10T08:10:31.743Z,94680.78
2022-11-10T08:12:59.399Z,94721.72
2022-11-10T08:15:26.514Z,94721.38
2022-11-10T08:17:58.062Z,94759.41
2022-11-10T08:20:24.487Z,94794.19
2022-11-10T08:22:56.022Z,94796.69
2022-11-10T08:25:22.461Z,94842.19
2022-11-10T08:27:49.128Z,94840.78
2022-11-10T08:30:15.847Z,94876.16
2022-11-10T08:32:42.276Z,94893.47
2022-11-10T08:35:08.756Z,94901.34
2022-11-10T08:37:35.596Z,94947.81
2022-11-10T08:40:02.057Z,94979.19
2022-11-10T08:42:28.528Z,94982.44
2022-11-10T08:44:54.974Z,95030.25
2022-11-10T08:47:21.441Z,95030.09
2022-11-10T08:49:47.926Z,95051.34
2022-11-10T08:52:14.558Z,95076.19
2022-11-10T08:54:40.999Z,95072.47
2022-11-10T08:57:07.407Z,95080.31
2022-11-10T08:59:33.827Z,95077.19
2022-11-10T09:02:00.305Z,95063.44
2022-11-10T09:04:26.794Z,95067.44
2022-11-10T09:06:53.241Z,95060.47
2022-11-10T09:09:19.784Z,95052.59
2022-11-10T09:11:46.801Z,95052.69
2022-11-10T09:14:13.226Z,95051.41
2022-11-10T09:16:40.115Z,95048.63
2022-11-10T09:19:06.643Z,95077.44
2022-11-10T09:21:33.074Z,95071.09
2022-11-10T09:23:59.532Z,95098.25
2022-11-10T09:26:25.967Z,95116.56
2022-11-10T09:28:52.368Z,95112.09
2022-11-10T09:31:18.798Z,95145.19
2022-11-10T09:33:45.320Z,95157.16
2022-11-10T09:36:11.716Z,95175.63
2022-11-10T09:38:39.334Z,95205.25
2022-11-10T09:41:07.835Z,95197.78
2022-11-10T09:43:34.222Z,95190.81
2022-11-10T09:46:02.189Z,95173.03
2022-11-10T09:48:30.779Z,95162.38
2022-11-10T09:50:59.367Z,95184.16
2022-11-10T09:53:29.266Z,95175.56
2022-11-10T09:55:58.863Z,95169.22
2022-11-10T09:58:27.983Z,95198.78
2022-11-10T10:01:06.689Z,95199.03
2022-11-10T10:03:34.982Z,95221.06
2022-11-10T10:06:09.951Z,95252.13
2022-11-10T10:08:39.214Z,95282.94
2022-11-10T10:11:24.402Z,95307.00
2022-11-10T10:13:59.486Z,95325.13
2022-11-10T10:16:36.376Z,95359.53
2022-11-10T10:19:21.158Z,95391.34
2022-11-10T10:21:53.502Z,95390.00
2022-11-10T10:24:22.330Z,95423.84
2022-11-10T10:26:53.740Z,95435.81
2022-11-10T10:29:22.979Z,95451.19
2022-11-10T10:31:51.146Z,95481.03
2022-11-10T10:34:23.355Z,95491.81
2022-11-10T10:36:49.904Z,95501.09
2022-11-10T10:39:21.255Z,95513.94
2022-11-10T10:41:47.707Z,95513.47
2022-11-10T10:44:15.905Z,95558.06
2022-11-10T10:46:49.478Z,95562.31
2022-11-10T10:49:29.579Z,95559.94
2022-11-10T10:52:13.180Z,95576.25
2022-11-10T10:54:40.202Z,95550.53
2022-11-10T10:57:06.707Z,95547.53
2022-11-10T10:59:33.756Z,95494.84
2022-11-10T11:02:00.536Z,95468.75
2022-11-10T11:04:34.713Z,95473.16
2022-11-10T11:07:05.782Z,95466.09
2022-11-10T11:09:40.678Z,95519.16
2022-11-10T11:12:14.347Z,95552.94
2022-11-10T11:14:45.782Z,95559.44
2022-11-10T11:17:22.433Z,95600.97
2022-11-10T11:19:59.450Z,95618.66
2022-11-10T11:22:46.501Z,95676.00
2022-11-10T11:25:15.823Z,95684.53
2022-11-10T11:27:57.302Z,95706.97
2022-11-10T11:30:24.973Z,95743.06
2022-11-10T11:33:06.535Z,95737.97
2022-11-10T11:35:51.857Z,95715.63
2022-11-10T11:38:30.733Z,95649.75
2022-11-10T11:41:12.585Z,95638.59
2022-11-10T11:43:57.545Z,95614.22
2022-11-10T11:46:30.191Z,95612.66
2022-11-10T11:49:02.619Z,95626.72
2022-11-10T11:51:28.986Z,95615.34
2022-11-10T11:54:01.487Z,95605.47
2022-11-10T11:56:33.146Z,95577.94
2022-11-10T11:59:11.607Z,95574.06
2022-11-10T12:01:55.272Z,95548.13
2022-11-10T12:04:27.846Z,95506.94
2022-11-10T12:07:06.677Z,95514.28
2022-11-10T12:09:56.280Z,95490.09
2022-11-10T12:12:25.709Z,95491.69
2022-11-10T12:15:10.990Z,95483.06
2022-11-10T12:18:02.207Z,95528.06
2022-11-10T12:20:34.659Z,95578.03
2022-11-10T12:23:06.902Z,95595.03
2022-11-10T12:25:42.473Z,95591.34
2022-11-10T12:28:15.525Z,95557.13
2022-11-10T12:30:42.929Z,95563.03
2022-11-10T12:33:15.540Z,95542.03
2022-11-10T12:35:44.100Z,95550.53
2022-11-10T12:38:22.048Z,95556.88
2022-11-10T12:40:48.585Z,95538.16
2022-11-10T12:43:17.805Z,95544.59
2022-11-10T12:45:45.982Z,95532.88
2022-11-10T12:48:13.209Z,95546.84
2022-11-10T12:50:45.802Z,95547.66
2022-11-10T12:53:15.943Z,95537.50
2022-11-10T12:55:44.498Z,95600.66
2022-11-10T12:58:13.447Z,95688.44
2022-11-10T13:00:42.402Z,95775.28
2022-11-10T13:03:14.113Z,95796.97
2022-11-10T13:05:45.770Z,95807.03
2022-11-10T13:08:12.215Z,95858.56
2022-11-10T13:10:47.815Z,95855.84
2022-11-10T13:13:17.370Z,95845.00
2022-11-10T13:15:43.850Z,95821.81
2022-11-10T13:18:11.552Z,95815.56
2022-11-10T13:20:49.329Z,95843.13
2022-11-10T13:23:23.062Z,95857.41
2022-11-10T13:25:55.533Z,95892.28
2022-11-10T13:28:40.483Z,95947.28
2022-11-10T13:31:25.987Z,95973.56
2022-11-10T13:34:06.340Z,96025.47
2022-11-10T13:36:40.486Z,96032.44
2022-11-10T13:39:24.426Z,96064.19
2022-11-10T13:41:57.011Z,96073.50
2022-11-10T13:44:25.166Z,96081.25
2022-11-10T13:46:54.733Z,96040.97
2022-11-10T13:49:40.039Z,95994.09
2022-11-10T13:52:09.467Z,95981.34
2022-11-10T13:54:52.702Z,95996.84
2022-11-10T13:57:31.378Z,96008.47
2022-11-10T14:00:00.453Z,96009.22
2022-11-10T14:02:42.204Z,95970.50
2022-11-10T14:05:28.554Z,95971.31
2022-11-10T14:08:06.299Z,95935.66
2022-11-10T14:10:40.242Z,95943.78
2022-11-10T14:13:16.398Z,95978.66
2022-11-10T14:15:46.986Z,95955.78
2022-11-10T14:18:25.145Z,95985.19
2022-11-10T14:20:57.400Z,95955.81
2022-11-10T14:23:49.892Z,95955.78
2022-11-10T14:26:24.002Z,95973.59
2022-11-10T14:28:50.411Z,95958.09
2022-11-10T14:31:21.301Z,95939.53
2022-11-10T14:33:54.989Z,95907.81
2022-11-10T14:36:21.743Z,95898.53
2022-11-10T14:38:48.691Z,95883.06
2022-11-10T14:41:17.565Z,95842.81
2022-11-10T14:43:44.116Z,95826.97
2022-11-10T14:46:14.194Z,95788.69
2022-11-10T14:48:41.244Z,95741.47
2022-11-10T14:51:11.667Z,95751.16
2022-11-10T14:53:39.251Z,95725.25
2022-11-10T14:56:14.470Z,95703.97
2022-11-10T14:58:42.288Z,95697.84
2022-11-10T15:01:22.402Z,95680.38
2022-11-10T15:03:49.275Z,95677.28
2022-11-10T15:06:15.812Z,95660.28
2022-11-10T15:08:42.311Z,95648.66
2022-11-10T15:11:28.705Z,95640.22
2022-11-10T15:13:55.184Z,95620.03
2022-11-10T15:16:32.219Z,95620.81
2022-11-10T15:19:17.453Z,95610.00
2022-11-10T15:21:43.936Z,95589.06
2022-11-10T15:24:10.755Z,95599.16
2022-11-10T15:26:39.448Z,95586.78
2022-11-10T15:29:06.131Z,95578.19
2022-11-10T15:31:33.991Z,95584.47
2022-11-10T15:34:01.686Z,95555.06
2022-11-10T15:36:28.317Z,95555.06
2022-11-10T15:39:15.962Z,95551.59
2022-11-10T15:41:43.512Z,95528.69
2022-11-10T15:44:21.072Z,95560.16
2022-11-10T15:46:48.422Z,95528.78
2022-11-10T15:49:35.179Z,95520.22
2022-11-10T15:52:21.819Z,95508.66
2022-11-10T15:54:50.048Z,95483.38
2022-11-10T15:57:20.303Z,95475.28
2022-11-10T15:59:46.896Z,95462.09
2022-11-10T16:02:18.646Z,95449.59
2022-11-10T16:04:45.278Z,95464.38
2022-11-10T16:07:11.762Z,95450.72
2022-11-10T16:09:38.291Z,95451.91
2022-11-10T16:12:04.946Z,95467.78
2022-11-10T16:14:31.375Z,95457.28
2022-11-10T16:16:57.861Z,95463.53
2022-11-10T16:19:24.262Z,95462.84
2022-11-10T16:21:50.806Z,95439.94
2022-11-10T16:24:17.203Z,95444.28
2022-11-10T16:26:43.818Z,95428.00
2022-11-10T16:29:12.041Z,95397.38
2022-11-10T16:31:38.501Z,95393.97
2022-11-10T16:34:04.977Z,95371.09
2022-11-10T16:36:33.575Z,95358.28
2022-11-10T16:39:04.105Z,95367.66
2022-11-10T16:41:30.908Z,95330.75
2022-11-10T16:43:57.386Z,95349.78
2022-11-10T16:46:25.865Z,95328.97
2022-11-10T16:48:56.622Z,95304.88
2022-11-10T16:51:28.670Z,95312.31
2022-11-10T16:53:55.102Z,95290.16
2022-11-10T16:56:21.729Z,95267.69
2022-11-10T16:58:48.167Z,95270.81
2022-11-10T17:01:18.293Z,95250.50
2022-11-10T17:03:47.164Z,95254.41
2022-11-10T17:06:14.739Z,95252.44
2022-11-10T17:08:41.587Z,95248.00
2022-11-10T17:11:08.355Z,95259.00
2022-11-10T17:13:34.900Z,95255.00
2022-11-10T17:16:06.488Z,95250.25
2022-11-10T17:18:34.443Z,95265.88
2022-11-10T17:21:01.292Z,95243.56
2022-11-10T17:23:28.181Z,95252.50
2022-11-10T17:25:55.203Z,95243.19
2022-11-10T17:28:21.679Z,95235.22
2022-11-10T17:30:48.203Z,95244.97
2022-11-10T17:33:14.598Z,95241.81
2022-11-10T17:35:52.126Z,95233.59
2022-11-10T17:38:25.711Z,95253.47
2022-11-10T17:40:52.512Z,95243.13
2022-11-10T17:43:19.159Z,95245.97
2022-11-10T17:45:45.747Z,95231.19
2022-11-10T17:48:12.292Z,95220.97
2022-11-10T17:50:39.942Z,95230.41
2022-11-10T17:53:20.490Z,95212.75
2022-11-10T17:55:48.149Z,95214.75
2022-11-10T17:58:15.230Z,95201.19
2022-11-10T18:00:41.763Z,95174.56
2022-11-10T18:03:13.438Z,95179.44
2022-11-10T18:05:39.872Z,95172.16
2022-11-10T18:08:06.273Z,95177.22
2022-11-10T18:10:32.721Z,95152.06
2022-11-10T18:12:59.206Z,95133.56
2022-11-10T18:15:25.650Z,95144.72
2022-11-10T18:17:52.080Z,95112.06
2022-11-10T18:20:18.504Z,95107.41
2022-11-10T18:22:44.957Z,95098.19
2022-11-10T18:25:11.460Z,95065.38
2022-11-10T18:27:37.915Z,95060.44
2022-11-10T18:30:05.086Z,95043.66
2022-11-10T18:32:31.743Z,95024.19
2022-11-10T18:34:58.138Z,95026.72
2022-11-10T18:37:24.699Z,94995.88
2022-11-10T18:39:51.301Z,94989.31
2022-11-10T18:42:17.790Z,94976.53
2022-11-10T18:44:44.207Z,94948.75
2022-11-10T18:47:11.928Z,94960.59
2022-11-10T18:49:38.523Z,94937.56
2022-11-10T18:52:04.939Z,94922.78
2022-11-10T18:54:31.486Z,94915.84
2022-11-10T18:56:57.982Z,94893.78
2022-11-10T18:59:24.398Z,94898.38
2022-11-10T19:01:51.015Z,94897.44
2022-11-10T19:04:17.634Z,94880.63
2022-11-10T19:06:44.253Z,94887.50
2022-11-10T19:09:11.419Z,94870.56
2022-11-10T19:11:37.962Z,94853.06
2022-11-10T19:14:05.393Z,94844.44
2022-11-10T19:16:31.996Z,94826.41
2022-11-10T19:18:58.425Z,94834.41
2022-11-10T19:21:28.858Z,94826.75
2022-11-10T19:23:58.548Z,94823.47
2022-11-10T19:26:26.223Z,94813.19
2022-11-10T19:28:53.495Z,94813.03
2022-11-10T19:31:22.675Z,94811.56
2022-11-10T19:33:49.950Z,94800.69
2022-11-10T19:36:21.122Z,94809.13
2022-11-10T19:38:47.755Z,94808.91
2022-11-10T19:41:16.326Z,94792.53
2022-11-10T19:43:47.282Z,94790.09
2022-11-10T19:46:16.129Z,94785.16
2022-11-10T19:48:43.447Z,94787.38
2022-11-10T19:51:11.484Z,94777.97
2022-11-10T19:53:37.877Z,94768.09
2022-11-10T19:56:06.366Z,94761.84
2022-11-10T19:58:35.615Z,94739.31
2022-11-10T20:01:02.197Z,94752.75
2022-11-10T20:03:29.187Z,94734.41
2022-11-10T20:06:00.220Z,94733.44
2022-11-10T20:08:27.508Z,94735.28
2022-11-10T20:10:54.324Z,94725.56
2022-11-10T20:13:20.993Z,94736.25
2022-11-10T20:15:47.704Z,94731.84
2022-11-10T20:18:14.411Z,94722.50
2022-11-10T20:20:40.927Z,94723.53
2022-11-10T20:23:08.453Z,94704.16
2022-11-10T20:25:35.288Z,94705.63
2022-11-10T20:28:03.539Z,94702.13
2022-11-10T20:30:30.366Z,94680.66
2022-11-10T20:32:56.784Z,94672.47
2022-11-10T20:35:23.392Z,94643.06
2022-11-10T20:37:49.827Z,94636.63
2022-11-10T20:40:42.993Z,94623.94
2022-11-10T20:43:02.934Z,94603.09
2022-11-10T20:45:30.842Z,94588.63
2022-11-10T20:47:57.824Z,94574.72
2022-11-10T20:50:24.790Z,94559.06
2022-11-10T20:52:51.387Z,94549.09
2022-11-10T20:55:18.485Z,94526.59
2022-11-10T20:57:45.279Z,94523.47
2022-11-10T21:00:12.003Z,94504.66
2022-11-10T21:02:38.427Z,94496.94
2022-11-10T21:05:05.876Z,94497.06
2022-11-10T21:07:32.379Z,94464.47
2022-11-10T21:09:58.810Z,94477.59
2022-11-10T21:12:43.830Z,94427.84
2022-11-10T21:15:10.304Z,94421.66
2022-11-10T21:17:41.508Z,94414.38
2022-11-10T21:20:10.622Z,94381.03
2022-11-10T21:22:37.174Z,94376.81
2022-11-10T21:25:03.790Z,94360.94
2022-11-10T21:27:30.257Z,94353.22
2022-11-10T21:29:57.518Z,94368.09
2022-11-10T21:32:25.044Z,94343.41
2022-11-10T21:34:51.498Z,94351.25
2022-11-10T21:37:18.428Z,94362.25
2022-11-10T21:39:45.703Z,94345.03
2022-11-10T21:42:12.155Z,94345.28
2022-11-10T21:44:38.568Z,94327.00
2022-11-10T21:47:05.093Z,94333.53
2022-11-10T21:49:31.546Z,94336.59
2022-11-10T21:51:57.926Z,94309.94
2022-11-10T21:54:24.358Z,94320.31
2022-11-10T21:56:50.786Z,94297.44
2022-11-10T21:59:19.129Z,94295.59
2022-11-10T22:01:45.949Z,94290.59
2022-11-10T22:04:12.608Z,94273.78
2022-11-10T22:06:57.585Z,94281.13
2022-11-10T22:09:42.855Z,94274.53
2022-11-10T22:12:30.551Z,94270.16
2022-11-10T22:15:15.326Z,94267.63
2022-11-10T22:18:00.262Z,94256.75
2022-11-10T22:20:26.815Z,94250.41
2022-11-10T22:22:53.267Z,94239.28
2022-11-10T22:25:19.711Z,94249.34
2022-11-10T22:27:46.669Z,94244.47
2022-11-10T22:30:13.442Z,94259.84
2022-11-10T22:32:39.906Z,94264.38
2022-11-10T22:35:07.037Z,94253.38
2022-11-10T22:37:34.001Z,94263.31
2022-11-10T22:40:19.059Z,94241.66
2022-11-10T22:43:04.066Z,94237.09
2022-11-10T22:45:30.564Z,94235.47
2022-11-10T22:48:15.809Z,94245.72
2022-11-10T22:50:42.255Z,94257.22
2022-11-10T22:53:08.695Z,94273.84
2022-11-10T22:55:35.189Z,94273.34
2022-11-10T22:58:01.598Z,94273.88
2022-11-10T23:00:28.002Z,94279.59
2022-11-10T23:02:54.452Z,94286.88
2022-11-10T23:05:21.135Z,94276.91
2022-11-10T23:07:48.625Z,94286.72
2022-11-10T23:10:15.059Z,94284.56
2022-11-10T23:12:41.473Z,94293.56
2022-11-10T23:15:08.223Z,94284.38
2022-11-10T23:17:34.630Z,94299.63
2022-11-10T23:20:01.095Z,94304.88
2022-11-10T23:22:27.891Z,94293.31
2022-11-10T23:24:57.174Z,94308.53
2022-11-10T23:27:23.977Z,94298.00
2022-11-10T23:29:51.814Z,94296.94
2022-11-10T23:32:18.250Z,94306.59
2022-11-10T23:34:44.654Z,94293.06
2022-11-10T23:37:11.259Z,94294.22
2022-11-10T23:39:37.807Z,94288.41
2022-11-10T23:42:04.275Z,94294.59
2022-11-10T23:44:30.658Z,94296.72
2022-11-10T23:46:57.067Z,94287.84
2022-11-10T23:49:23.521Z,94309.56
2022-11-10T23:51:49.940Z,94306.31
2022-11-10T23:54:16.402Z,94343.28
2022-11-10T23:56:42.803Z,94333.16
2022-11-10T23:59:09.524Z,94331.94
